sensor_id;sensor_type;location;lat;lon;timestamp;P1;durP1;ratioP1;P2;durP2;ratioP2
71771;SDS011;59606;52.138;5.424;2022-12-18T00:02:14;38.50;;;11.60;;
71771;SDS011;59606;52.138;5.424;2022-12-18T00:04:41;31.08;;;12.18;;
71771;SDS011;59606;52.138;5.424;2022-12-18T00:07:07;37.70;;;12.00;;
71771;SDS011;59606;52.138;5.424;2022-12-18T00:09:33;38.03;;;12.10;;
71771;SDS011;59606;52.138;5.424;2022-12-18T00:12:05;34.88;;;11.90;;
71771;SDS011;59606;52.138;5.424;2022-12-18T00:14:43;48.22;;;14.02;;
71771;SDS011;59606;52.138;5.424;2022-12-18T00:17:10;39.30;;;13.68;;
71771;SDS011;59606;52.138;5.424;2022-12-18T00:19:37;40.27;;;12.73;;
71771;SDS011;59606;52.138;5.424;2022-12-18T00:22:03;38.80;;;13.77;;
71771;SDS011;59606;52.138;5.424;2022-12-18T00:24:31;42.60;;;14.30;;
71771;SDS011;59606;52.138;5.424;2022-12-18T00:26:57;36.92;;;13.15;;
71771;SDS011;59606;52.138;5.424;2022-12-18T00:29:24;38.03;;;13.02;;
71771;SDS011;59606;52.138;5.424;2022-12-18T00:31:50;31.13;;;12.20;;
71771;SDS011;59606;52.138;5.424;2022-12-18T00:34:17;44.70;;;13.70;;
71771;SDS011;59606;52.138;5.424;2022-12-18T00:36:43;36.60;;;13.73;;
71771;SDS011;59606;52.138;5.424;2022-12-18T00:39:10;36.95;;;12.80;;
71771;SDS011;59606;52.138;5.424;2022-12-18T00:41:37;40.03;;;14.90;;
71771;SDS011;59606;52.138;5.424;2022-12-18T00:44:23;42.93;;;13.33;;
71771;SDS011;59606;52.138;5.424;2022-12-18T00:46:49;36.25;;;13.85;;
71771;SDS011;59606;52.138;5.424;2022-12-18T00:49:17;37.28;;;11.68;;
71771;SDS011;59606;52.138;5.424;2022-12-18T00:51:45;43.80;;;13.18;;
71771;SDS011;59606;52.138;5.424;2022-12-18T00:54:12;30.92;;;10.88;;
71771;SDS011;59606;52.138;5.424;2022-12-18T00:56:39;33.10;;;11.97;;
71771;SDS011;59606;52.138;5.424;2022-12-18T00:59:14;38.47;;;13.02;;
71771;SDS011;59606;52.138;5.424;2022-12-18T01:01:40;39.40;;;13.65;;
71771;SDS011;59606;52.138;5.424;2022-12-18T01:04:07;43.17;;;13.30;;
71771;SDS011;59606;52.138;5.424;2022-12-18T01:06:34;37.25;;;12.98;;
71771;SDS011;59606;52.138;5.424;2022-12-18T01:09:01;37.10;;;10.50;;
71771;SDS011;59606;52.138;5.424;2022-12-18T01:11:28;34.88;;;12.68;;
71771;SDS011;59606;52.138;5.424;2022-12-18T01:13:55;40.17;;;13.85;;
71771;SDS011;59606;52.138;5.424;2022-12-18T01:16:21;39.55;;;14.85;;
71771;SDS011;59606;52.138;5.424;2022-12-18T01:18:50;42.63;;;13.23;;
71771;SDS011;59606;52.138;5.424;2022-12-18T01:21:18;37.70;;;13.20;;
71771;SDS011;59606;52.138;5.424;2022-12-18T01:23:45;39.72;;;12.18;;
71771;SDS011;59606;52.138;5.424;2022-12-18T01:26:15;37.22;;;12.43;;
71771;SDS011;59606;52.138;5.424;2022-12-18T01:28:42;34.78;;;11.55;;
71771;SDS011;59606;52.138;5.424;2022-12-18T01:33:39;37.30;;;12.07;;
71771;SDS011;59606;52.138;5.424;2022-12-18T01:36:07;43.47;;;14.88;;
71771;SDS011;59606;52.138;5.424;2022-12-18T01:38:40;40.90;;;12.82;;
71771;SDS011;59606;52.138;5.424;2022-12-18T01:41:07;37.28;;;12.45;;
71771;SDS011;59606;52.138;5.424;2022-12-18T01:43:45;45.22;;;12.73;;
71771;SDS011;59606;52.138;5.424;2022-12-18T01:46:12;40.20;;;12.63;;
71771;SDS011;59606;52.138;5.424;2022-12-18T01:48:40;41.13;;;12.52;;
71771;SDS011;59606;52.138;5.424;2022-12-18T01:51:08;41.15;;;14.18;;
71771;SDS011;59606;52.138;5.424;2022-12-18T01:53:37;39.00;;;12.10;;
71771;SDS011;59606;52.138;5.424;2022-12-18T01:56:06;36.05;;;12.50;;
71771;SDS011;59606;52.138;5.424;2022-12-18T02:01:12;43.80;;;12.13;;
71771;SDS011;59606;52.138;5.424;2022-12-18T02:03:42;41.58;;;13.43;;
71771;SDS011;59606;52.138;5.424;2022-12-18T02:06:15;41.95;;;13.43;;
71771;SDS011;59606;52.138;5.424;2022-12-18T02:09:08;37.03;;;12.98;;
71771;SDS011;59606;52.138;5.424;2022-12-18T02:26:19;39.47;;;13.53;;
71771;SDS011;59606;52.138;5.424;2022-12-18T02:29:21;33.33;;;12.82;;
71771;SDS011;59606;52.138;5.424;2022-12-18T02:31:54;32.35;;;13.20;;
71771;SDS011;59606;52.138;5.424;2022-12-18T02:34:28;29.38;;;11.60;;
71771;SDS011;59606;52.138;5.424;2022-12-18T02:36:57;37.15;;;14.20;;
71771;SDS011;59606;52.138;5.424;2022-12-18T02:39:26;37.77;;;12.20;;
71771;SDS011;59606;52.138;5.424;2022-12-18T02:41:55;32.20;;;12.23;;
71771;SDS011;59606;52.138;5.424;2022-12-18T02:44:23;37.33;;;13.85;;
71771;SDS011;59606;52.138;5.424;2022-12-18T02:46:50;32.13;;;11.98;;
71771;SDS011;59606;52.138;5.424;2022-12-18T02:49:27;32.88;;;12.77;;
71771;SDS011;59606;52.138;5.424;2022-12-18T02:51:58;36.57;;;12.53;;
71771;SDS011;59606;52.138;5.424;2022-12-18T02:54:55;29.42;;;10.52;;
71771;SDS011;59606;52.138;5.424;2022-12-18T02:57:37;34.80;;;12.95;;
71771;SDS011;59606;52.138;5.424;2022-12-18T03:00:14;38.97;;;12.05;;
71771;SDS011;59606;52.138;5.424;2022-12-18T03:02:58;33.70;;;12.18;;
71771;SDS011;59606;52.138;5.424;2022-12-18T03:05:53;26.77;;;11.97;;
71771;SDS011;59606;52.138;5.424;2022-12-18T03:08:42;36.85;;;12.73;;
71771;SDS011;59606;52.138;5.424;2022-12-18T03:11:13;32.53;;;11.75;;
71771;SDS011;59606;52.138;5.424;2022-12-18T03:13:45;36.72;;;12.63;;
71771;SDS011;59606;52.138;5.424;2022-12-18T03:16:21;36.08;;;13.18;;
71771;SDS011;59606;52.138;5.424;2022-12-18T03:21:37;27.50;;;10.88;;
71771;SDS011;59606;52.138;5.424;2022-12-18T03:24:08;35.75;;;12.63;;
71771;SDS011;59606;52.138;5.424;2022-12-18T03:26:37;24.23;;;10.02;;
71771;SDS011;59606;52.138;5.424;2022-12-18T03:29:15;30.65;;;12.90;;
71771;SDS011;59606;52.138;5.424;2022-12-18T03:31:47;26.13;;;10.77;;
71771;SDS011;59606;52.138;5.424;2022-12-18T03:34:19;32.78;;;11.07;;
71771;SDS011;59606;52.138;5.424;2022-12-18T03:36:50;28.90;;;11.52;;
71771;SDS011;59606;52.138;5.424;2022-12-18T03:39:17;28.13;;;9.40;;
71771;SDS011;59606;52.138;5.424;2022-12-18T03:41:44;28.67;;;10.38;;
71771;SDS011;59606;52.138;5.424;2022-12-18T03:52:28;24.38;;;10.25;;
71771;SDS011;59606;52.138;5.424;2022-12-18T03:55:03;28.42;;;10.52;;
71771;SDS011;59606;52.138;5.424;2022-12-18T03:57:33;24.83;;;10.73;;
71771;SDS011;59606;52.138;5.424;2022-12-18T04:00:02;24.85;;;10.60;;
71771;SDS011;59606;52.138;5.424;2022-12-18T04:02:32;21.20;;;9.88;;
71771;SDS011;59606;52.138;5.424;2022-12-18T04:05:01;26.73;;;9.65;;
71771;SDS011;59606;52.138;5.424;2022-12-18T04:07:31;24.33;;;10.20;;
71771;SDS011;59606;52.138;5.424;2022-12-18T04:09:59;25.83;;;10.23;;
71771;SDS011;59606;52.138;5.424;2022-12-18T04:12:29;23.33;;;9.80;;
71771;SDS011;59606;52.138;5.424;2022-12-18T04:14:56;26.48;;;10.27;;
71771;SDS011;59606;52.138;5.424;2022-12-18T04:17:23;29.60;;;9.43;;
71771;SDS011;59606;52.138;5.424;2022-12-18T04:19:50;26.33;;;10.75;;
71771;SDS011;59606;52.138;5.424;2022-12-18T04:22:16;21.03;;;9.33;;
71771;SDS011;59606;52.138;5.424;2022-12-18T04:24:43;25.77;;;10.38;;
71771;SDS011;59606;52.138;5.424;2022-12-18T04:27:09;32.97;;;9.85;;
71771;SDS011;59606;52.138;5.424;2022-12-18T04:29:36;28.42;;;10.05;;
71771;SDS011;59606;52.138;5.424;2022-12-18T04:32:02;24.58;;;10.65;;
71771;SDS011;59606;52.138;5.424;2022-12-18T04:34:29;22.27;;;8.77;;
71771;SDS011;59606;52.138;5.424;2022-12-18T04:36:56;25.67;;;8.65;;
71771;SDS011;59606;52.138;5.424;2022-12-18T04:39:22;24.38;;;9.60;;
71771;SDS011;59606;52.138;5.424;2022-12-18T04:41:49;18.08;;;8.35;;
71771;SDS011;59606;52.138;5.424;2022-12-18T04:44:17;29.25;;;9.65;;
71771;SDS011;59606;52.138;5.424;2022-12-18T04:46:43;21.03;;;7.60;;
71771;SDS011;59606;52.138;5.424;2022-12-18T04:49:10;17.23;;;7.95;;
71771;SDS011;59606;52.138;5.424;2022-12-18T04:51:36;24.95;;;8.70;;
71771;SDS011;59606;52.138;5.424;2022-12-18T04:54:03;23.60;;;9.55;;
71771;SDS011;59606;52.138;5.424;2022-12-18T04:56:30;30.15;;;9.98;;
71771;SDS011;59606;52.138;5.424;2022-12-18T04:58:57;20.80;;;7.80;;
71771;SDS011;59606;52.138;5.424;2022-12-18T05:01:24;19.48;;;9.73;;
71771;SDS011;59606;52.138;5.424;2022-12-18T05:03:59;22.00;;;8.65;;
71771;SDS011;59606;52.138;5.424;2022-12-18T05:06:26;17.58;;;6.90;;
71771;SDS011;59606;52.138;5.424;2022-12-18T05:08:52;18.10;;;7.90;;
71771;SDS011;59606;52.138;5.424;2022-12-18T05:11:19;20.53;;;7.80;;
71771;SDS011;59606;52.138;5.424;2022-12-18T05:13:45;25.10;;;9.00;;
71771;SDS011;59606;52.138;5.424;2022-12-18T05:16:15;19.90;;;7.97;;
71771;SDS011;59606;52.138;5.424;2022-12-18T05:18:42;21.55;;;8.50;;
71771;SDS011;59606;52.138;5.424;2022-12-18T05:21:08;19.40;;;8.23;;
71771;SDS011;59606;52.138;5.424;2022-12-18T05:23:35;20.30;;;7.40;;
71771;SDS011;59606;52.138;5.424;2022-12-18T05:26:04;18.08;;;6.10;;
71771;SDS011;59606;52.138;5.424;2022-12-18T05:28:32;19.73;;;7.60;;
71771;SDS011;59606;52.138;5.424;2022-12-18T05:31:01;17.02;;;7.60;;
71771;SDS011;59606;52.138;5.424;2022-12-18T05:33:30;13.13;;;6.55;;
71771;SDS011;59606;52.138;5.424;2022-12-18T05:36:02;19.80;;;7.00;;
71771;SDS011;59606;52.138;5.424;2022-12-18T05:38:32;14.70;;;7.38;;
71771;SDS011;59606;52.138;5.424;2022-12-18T05:41:01;20.05;;;6.72;;
71771;SDS011;59606;52.138;5.424;2022-12-18T05:43:28;14.70;;;6.57;;
71771;SDS011;59606;52.138;5.424;2022-12-18T05:45:57;16.55;;;7.00;;
71771;SDS011;59606;52.138;5.424;2022-12-18T05:48:23;10.73;;;4.97;;
71771;SDS011;59606;52.138;5.424;2022-12-18T05:50:51;16.98;;;6.70;;
71771;SDS011;59606;52.138;5.424;2022-12-18T05:53:18;20.65;;;8.18;;
71771;SDS011;59606;52.138;5.424;2022-12-18T05:55:46;14.82;;;6.20;;
71771;SDS011;59606;52.138;5.424;2022-12-18T05:58:13;15.07;;;6.70;;
71771;SDS011;59606;52.138;5.424;2022-12-18T06:00:44;19.13;;;7.60;;
71771;SDS011;59606;52.138;5.424;2022-12-18T06:03:12;22.90;;;6.82;;
71771;SDS011;59606;52.138;5.424;2022-12-18T06:05:41;18.92;;;7.47;;
71771;SDS011;59606;52.138;5.424;2022-12-18T06:08:13;14.30;;;6.05;;
71771;SDS011;59606;52.138;5.424;2022-12-18T06:10:40;17.88;;;7.78;;
71771;SDS011;59606;52.138;5.424;2022-12-18T06:13:07;17.00;;;6.63;;
71771;SDS011;59606;52.138;5.424;2022-12-18T06:15:37;16.63;;;7.28;;
71771;SDS011;59606;52.138;5.424;2022-12-18T06:18:04;21.27;;;7.63;;
71771;SDS011;59606;52.138;5.424;2022-12-18T06:20:31;17.95;;;7.00;;
71771;SDS011;59606;52.138;5.424;2022-12-18T06:22:59;17.73;;;7.28;;
71771;SDS011;59606;52.138;5.424;2022-12-18T06:25:25;14.73;;;6.97;;
71771;SDS011;59606;52.138;5.424;2022-12-18T06:27:52;13.93;;;6.78;;
71771;SDS011;59606;52.138;5.424;2022-12-18T06:30:18;16.60;;;7.32;;
71771;SDS011;59606;52.138;5.424;2022-12-18T06:32:45;11.48;;;5.95;;
71771;SDS011;59606;52.138;5.424;2022-12-18T06:35:21;12.95;;;5.60;;
71771;SDS011;59606;52.138;5.424;2022-12-18T06:37:48;24.00;;;7.93;;
71771;SDS011;59606;52.138;5.424;2022-12-18T06:40:14;11.95;;;5.90;;
71771;SDS011;59606;52.138;5.424;2022-12-18T06:42:41;19.77;;;6.95;;
71771;SDS011;59606;52.138;5.424;2022-12-18T06:45:08;13.93;;;6.15;;
71771;SDS011;59606;52.138;5.424;2022-12-18T06:47:35;17.88;;;7.40;;
71771;SDS011;59606;52.138;5.424;2022-12-18T06:50:02;20.40;;;7.37;;
71771;SDS011;59606;52.138;5.424;2022-12-18T06:52:31;16.38;;;7.35;;
71771;SDS011;59606;52.138;5.424;2022-12-18T06:54:58;19.70;;;6.43;;
71771;SDS011;59606;52.138;5.424;2022-12-18T06:57:24;13.80;;;5.40;;
71771;SDS011;59606;52.138;5.424;2022-12-18T06:59:51;13.73;;;7.32;;
71771;SDS011;59606;52.138;5.424;2022-12-18T07:02:17;12.60;;;5.03;;
71771;SDS011;59606;52.138;5.424;2022-12-18T07:04:44;16.50;;;6.45;;
71771;SDS011;59606;52.138;5.424;2022-12-18T07:07:10;22.02;;;8.30;;
71771;SDS011;59606;52.138;5.424;2022-12-18T07:09:37;15.23;;;6.57;;
71771;SDS011;59606;52.138;5.424;2022-12-18T07:12:03;21.50;;;8.45;;
71771;SDS011;59606;52.138;5.424;2022-12-18T07:14:31;16.17;;;6.30;;
71771;SDS011;59606;52.138;5.424;2022-12-18T07:16:57;16.15;;;5.97;;
71771;SDS011;59606;52.138;5.424;2022-12-18T07:19:25;15.57;;;6.03;;
71771;SDS011;59606;52.138;5.424;2022-12-18T07:21:51;17.05;;;6.40;;
71771;SDS011;59606;52.138;5.424;2022-12-18T07:24:18;16.10;;;6.43;;
71771;SDS011;59606;52.138;5.424;2022-12-18T07:26:47;16.83;;;6.07;;
71771;SDS011;59606;52.138;5.424;2022-12-18T07:29:14;11.52;;;5.68;;
71771;SDS011;59606;52.138;5.424;2022-12-18T07:31:40;15.73;;;5.93;;
71771;SDS011;59606;52.138;5.424;2022-12-18T07:34:11;13.85;;;5.13;;
71771;SDS011;59606;52.138;5.424;2022-12-18T07:36:41;14.50;;;7.35;;
71771;SDS011;59606;52.138;5.424;2022-12-18T07:39:07;20.40;;;6.23;;
71771;SDS011;59606;52.138;5.424;2022-12-18T07:41:34;14.27;;;6.82;;
71771;SDS011;59606;52.138;5.424;2022-12-18T07:44:00;18.17;;;6.32;;
71771;SDS011;59606;52.138;5.424;2022-12-18T07:46:26;19.25;;;6.70;;
71771;SDS011;59606;52.138;5.424;2022-12-18T07:48:53;14.10;;;5.72;;
71771;SDS011;59606;52.138;5.424;2022-12-18T07:51:19;15.57;;;6.93;;
71771;SDS011;59606;52.138;5.424;2022-12-18T07:53:46;14.82;;;6.38;;
71771;SDS011;59606;52.138;5.424;2022-12-18T07:56:17;21.48;;;6.57;;
71771;SDS011;59606;52.138;5.424;2022-12-18T07:58:55;13.05;;;5.50;;
71771;SDS011;59606;52.138;5.424;2022-12-18T08:01:22;18.10;;;6.45;;
71771;SDS011;59606;52.138;5.424;2022-12-18T08:03:49;18.57;;;6.47;;
71771;SDS011;59606;52.138;5.424;2022-12-18T08:06:17;15.40;;;5.90;;
71771;SDS011;59606;52.138;5.424;2022-12-18T08:08:44;21.52;;;6.97;;
71771;SDS011;59606;52.138;5.424;2022-12-18T08:11:10;12.98;;;6.43;;
71771;SDS011;59606;52.138;5.424;2022-12-18T08:13:36;15.38;;;5.43;;
71771;SDS011;59606;52.138;5.424;2022-12-18T08:16:04;14.77;;;5.83;;
71771;SDS011;59606;52.138;5.424;2022-12-18T08:18:36;16.33;;;6.15;;
71771;SDS011;59606;52.138;5.424;2022-12-18T08:21:10;14.52;;;5.05;;
71771;SDS011;59606;52.138;5.424;2022-12-18T08:23:38;18.70;;;6.30;;
71771;SDS011;59606;52.138;5.424;2022-12-18T08:26:09;19.27;;;7.50;;
71771;SDS011;59606;52.138;5.424;2022-12-18T08:28:36;12.80;;;6.07;;
71771;SDS011;59606;52.138;5.424;2022-12-18T08:31:03;16.33;;;6.07;;
71771;SDS011;59606;52.138;5.424;2022-12-18T08:33:30;17.35;;;7.18;;
71771;SDS011;59606;52.138;5.424;2022-12-18T08:35:57;16.50;;;7.85;;
71771;SDS011;59606;52.138;5.424;2022-12-18T08:38:24;21.98;;;10.77;;
71771;SDS011;59606;52.138;5.424;2022-12-18T08:41:04;23.63;;;9.40;;
71771;SDS011;59606;52.138;5.424;2022-12-18T08:43:33;17.02;;;7.35;;
71771;SDS011;59606;52.138;5.424;2022-12-18T08:46:21;17.95;;;7.85;;
71771;SDS011;59606;52.138;5.424;2022-12-18T08:48:50;24.85;;;8.68;;
71771;SDS011;59606;52.138;5.424;2022-12-18T08:51:17;23.38;;;9.98;;
71771;SDS011;59606;52.138;5.424;2022-12-18T08:53:44;17.53;;;7.63;;
71771;SDS011;59606;52.138;5.424;2022-12-18T08:56:12;20.70;;;9.25;;
71771;SDS011;59606;52.138;5.424;2022-12-18T08:58:39;13.88;;;7.75;;
71771;SDS011;59606;52.138;5.424;2022-12-18T09:01:09;15.32;;;7.03;;
71771;SDS011;59606;52.138;5.424;2022-12-18T09:03:37;16.90;;;8.25;;
71771;SDS011;59606;52.138;5.424;2022-12-18T09:06:07;16.67;;;7.87;;
71771;SDS011;59606;52.138;5.424;2022-12-18T09:08:35;16.75;;;8.32;;
71771;SDS011;59606;52.138;5.424;2022-12-18T09:11:03;29.95;;;10.98;;
71771;SDS011;59606;52.138;5.424;2022-12-18T09:13:30;27.55;;;9.70;;
71771;SDS011;59606;52.138;5.424;2022-12-18T09:15:57;22.95;;;10.82;;
71771;SDS011;59606;52.138;5.424;2022-12-18T09:18:23;29.50;;;10.97;;
71771;SDS011;59606;52.138;5.424;2022-12-18T09:20:50;21.83;;;10.88;;
71771;SDS011;59606;52.138;5.424;2022-12-18T09:23:19;23.55;;;11.55;;
71771;SDS011;59606;52.138;5.424;2022-12-18T09:25:46;29.52;;;14.05;;
71771;SDS011;59606;52.138;5.424;2022-12-18T09:28:14;23.73;;;13.10;;
71771;SDS011;59606;52.138;5.424;2022-12-18T09:30:43;44.50;;;21.47;;
71771;SDS011;59606;52.138;5.424;2022-12-18T09:33:11;47.08;;;17.58;;
71771;SDS011;59606;52.138;5.424;2022-12-18T09:35:41;30.48;;;14.18;;
71771;SDS011;59606;52.138;5.424;2022-12-18T09:38:09;32.85;;;14.48;;
71771;SDS011;59606;52.138;5.424;2022-12-18T09:40:42;33.58;;;14.18;;
71771;SDS011;59606;52.138;5.424;2022-12-18T09:43:26;22.50;;;10.70;;
71771;SDS011;59606;52.138;5.424;2022-12-18T09:46:10;18.75;;;7.82;;
71771;SDS011;59606;52.138;5.424;2022-12-18T09:48:43;16.33;;;7.72;;
71771;SDS011;59606;52.138;5.424;2022-12-18T09:51:18;29.45;;;13.63;;
71771;SDS011;59606;52.138;5.424;2022-12-18T09:53:53;23.25;;;10.32;;
71771;SDS011;59606;52.138;5.424;2022-12-18T09:56:25;17.47;;;7.03;;
71771;SDS011;59606;52.138;5.424;2022-12-18T09:58:55;17.48;;;5.57;;
71771;SDS011;59606;52.138;5.424;2022-12-18T10:01:26;14.38;;;7.07;;
71771;SDS011;59606;52.138;5.424;2022-12-18T10:04:08;15.32;;;6.78;;
71771;SDS011;59606;52.138;5.424;2022-12-18T10:06:43;11.90;;;5.47;;
71771;SDS011;59606;52.138;5.424;2022-12-18T10:09:20;17.23;;;7.37;;
71771;SDS011;59606;52.138;5.424;2022-12-18T10:11:59;13.70;;;7.45;;
71771;SDS011;59606;52.138;5.424;2022-12-18T10:20:34;17.77;;;6.88;;
71771;SDS011;59606;52.138;5.424;2022-12-18T10:28:39;16.52;;;6.28;;
71771;SDS011;59606;52.138;5.424;2022-12-18T10:31:07;17.23;;;6.80;;
71771;SDS011;59606;52.138;5.424;2022-12-18T10:33:43;17.38;;;6.28;;
71771;SDS011;59606;52.138;5.424;2022-12-18T10:36:12;16.37;;;7.67;;
71771;SDS011;59606;52.138;5.424;2022-12-18T10:38:39;13.57;;;5.90;;
71771;SDS011;59606;52.138;5.424;2022-12-18T10:43:51;15.70;;;7.60;;
71771;SDS011;59606;52.138;5.424;2022-12-18T10:46:47;15.13;;;5.97;;
71771;SDS011;59606;52.138;5.424;2022-12-18T10:49:21;13.37;;;6.57;;
71771;SDS011;59606;52.138;5.424;2022-12-18T10:52:13;17.98;;;7.55;;
71771;SDS011;59606;52.138;5.424;2022-12-18T10:54:45;16.95;;;7.05;;
71771;SDS011;59606;52.138;5.424;2022-12-18T10:57:15;12.95;;;6.13;;
71771;SDS011;59606;52.138;5.424;2022-12-18T10:59:54;16.10;;;7.28;;
71771;SDS011;59606;52.138;5.424;2022-12-18T11:02:33;16.73;;;6.57;;
71771;SDS011;59606;52.138;5.424;2022-12-18T11:05:02;16.92;;;7.50;;
71771;SDS011;59606;52.138;5.424;2022-12-18T11:07:49;13.27;;;5.60;;
71771;SDS011;59606;52.138;5.424;2022-12-18T11:10:18;15.65;;;6.97;;
71771;SDS011;59606;52.138;5.424;2022-12-18T11:12:46;15.02;;;6.85;;
71771;SDS011;59606;52.138;5.424;2022-12-18T11:15:15;17.53;;;7.73;;
71771;SDS011;59606;52.138;5.424;2022-12-18T11:18:02;13.50;;;6.43;;
71771;SDS011;59606;52.138;5.424;2022-12-18T11:20:35;15.55;;;6.65;;
71771;SDS011;59606;52.138;5.424;2022-12-18T11:23:10;17.15;;;6.22;;
71771;SDS011;59606;52.138;5.424;2022-12-18T11:25:39;15.10;;;6.95;;
71771;SDS011;59606;52.138;5.424;2022-12-18T11:28:25;16.13;;;7.80;;
71771;SDS011;59606;52.138;5.424;2022-12-18T11:33:41;24.63;;;10.00;;
71771;SDS011;59606;52.138;5.424;2022-12-18T11:36:34;18.83;;;8.10;;
71771;SDS011;59606;52.138;5.424;2022-12-18T11:44:50;34.60;;;13.27;;
71771;SDS011;59606;52.138;5.424;2022-12-18T11:50:18;22.10;;;9.45;;
71771;SDS011;59606;52.138;5.424;2022-12-18T11:52:48;22.45;;;9.30;;
71771;SDS011;59606;52.138;5.424;2022-12-18T11:58:12;16.13;;;6.72;;
71771;SDS011;59606;52.138;5.424;2022-12-18T12:06:22;17.35;;;7.18;;
71771;SDS011;59606;52.138;5.424;2022-12-18T12:09:20;12.57;;;7.10;;
71771;SDS011;59606;52.138;5.424;2022-12-18T12:14:41;18.95;;;7.22;;
71771;SDS011;59606;52.138;5.424;2022-12-18T12:17:40;19.30;;;6.72;;
71771;SDS011;59606;52.138;5.424;2022-12-18T12:20:17;15.50;;;7.63;;
71771;SDS011;59606;52.138;5.424;2022-12-18T12:23:04;11.37;;;5.83;;
71771;SDS011;59606;52.138;5.424;2022-12-18T12:25:42;15.98;;;7.20;;
71771;SDS011;59606;52.138;5.424;2022-12-18T12:34:21;18.23;;;6.95;;
71771;SDS011;59606;52.138;5.424;2022-12-18T12:39:28;15.80;;;6.32;;
71771;SDS011;59606;52.138;5.424;2022-12-18T12:42:01;13.45;;;6.03;;
71771;SDS011;59606;52.138;5.424;2022-12-18T12:44:53;18.17;;;7.53;;
71771;SDS011;59606;52.138;5.424;2022-12-18T12:47:25;14.73;;;7.28;;
71771;SDS011;59606;52.138;5.424;2022-12-18T12:49:57;14.33;;;6.60;;
71771;SDS011;59606;52.138;5.424;2022-12-18T12:52:30;15.32;;;6.47;;
71771;SDS011;59606;52.138;5.424;2022-12-18T12:55:02;20.63;;;9.15;;
71771;SDS011;59606;52.138;5.424;2022-12-18T12:58:02;18.08;;;6.38;;
71771;SDS011;59606;52.138;5.424;2022-12-18T13:09:13;16.33;;;6.72;;
71771;SDS011;59606;52.138;5.424;2022-12-18T13:11:41;18.10;;;7.80;;
71771;SDS011;59606;52.138;5.424;2022-12-18T13:19:48;13.77;;;6.43;;
71771;SDS011;59606;52.138;5.424;2022-12-18T13:22:28;13.98;;;6.32;;
71771;SDS011;59606;52.138;5.424;2022-12-18T13:25:03;15.27;;;6.22;;
71771;SDS011;59606;52.138;5.424;2022-12-18T13:28:03;16.05;;;7.57;;
71771;SDS011;59606;52.138;5.424;2022-12-18T13:35:42;15.20;;;7.38;;
71771;SDS011;59606;52.138;5.424;2022-12-18T13:40:59;15.80;;;7.00;;
71771;SDS011;59606;52.138;5.424;2022-12-18T13:46:01;18.48;;;7.95;;
71771;SDS011;59606;52.138;5.424;2022-12-18T13:48:53;17.27;;;7.30;;
71771;SDS011;59606;52.138;5.424;2022-12-18T13:51:21;16.88;;;6.15;;
71771;SDS011;59606;52.138;5.424;2022-12-18T13:56:54;17.17;;;7.43;;
71771;SDS011;59606;52.138;5.424;2022-12-18T14:02:25;20.00;;;7.78;;
71771;SDS011;59606;52.138;5.424;2022-12-18T14:04:57;20.15;;;7.70;;
71771;SDS011;59606;52.138;5.424;2022-12-18T14:07:39;14.75;;;7.70;;
71771;SDS011;59606;52.138;5.424;2022-12-18T14:10:15;21.10;;;8.83;;
71771;SDS011;59606;52.138;5.424;2022-12-18T14:13:32;22.40;;;8.55;;
71771;SDS011;59606;52.138;5.424;2022-12-18T14:16:12;19.02;;;7.85;;
71771;SDS011;59606;52.138;5.424;2022-12-18T14:21:40;18.90;;;8.02;;
71771;SDS011;59606;52.138;5.424;2022-12-18T14:24:29;19.53;;;8.27;;
71771;SDS011;59606;52.138;5.424;2022-12-18T14:27:23;19.42;;;8.88;;
71771;SDS011;59606;52.138;5.424;2022-12-18T14:29:55;14.68;;;6.80;;
71771;SDS011;59606;52.138;5.424;2022-12-18T14:32:26;18.77;;;8.13;;
71771;SDS011;59606;52.138;5.424;2022-12-18T14:34:56;21.45;;;9.00;;
71771;SDS011;59606;52.138;5.424;2022-12-18T14:37:52;20.03;;;8.07;;
71771;SDS011;59606;52.138;5.424;2022-12-18T14:40:30;23.83;;;9.52;;
71771;SDS011;59606;52.138;5.424;2022-12-18T14:43:12;17.70;;;7.72;;
71771;SDS011;59606;52.138;5.424;2022-12-18T14:48:49;13.68;;;6.93;;
71771;SDS011;59606;52.138;5.424;2022-12-18T14:51:19;16.50;;;7.67;;
71771;SDS011;59606;52.138;5.424;2022-12-18T14:54:03;20.58;;;8.30;;
71771;SDS011;59606;52.138;5.424;2022-12-18T15:00:19;17.70;;;7.40;;
71771;SDS011;59606;52.138;5.424;2022-12-18T15:02:53;23.25;;;8.38;;
71771;SDS011;59606;52.138;5.424;2022-12-18T15:08:54;14.50;;;7.53;;
71771;SDS011;59606;52.138;5.424;2022-12-18T15:11:46;18.75;;;7.38;;
71771;SDS011;59606;52.138;5.424;2022-12-18T15:14:45;16.10;;;7.70;;
71771;SDS011;59606;52.138;5.424;2022-12-18T15:30:59;17.35;;;6.93;;
71771;SDS011;59606;52.138;5.424;2022-12-18T15:36:28;22.03;;;7.60;;
71771;SDS011;59606;52.138;5.424;2022-12-18T15:39:13;18.38;;;7.20;;
71771;SDS011;59606;52.138;5.424;2022-12-18T15:41:40;22.25;;;8.40;;
71771;SDS011;59606;52.138;5.424;2022-12-18T15:44:26;20.88;;;6.65;;
71771;SDS011;59606;52.138;5.424;2022-12-18T15:47:01;20.48;;;8.30;;
71771;SDS011;59606;52.138;5.424;2022-12-18T15:52:41;21.77;;;7.85;;
71771;SDS011;59606;52.138;5.424;2022-12-18T15:55:14;19.13;;;7.70;;
71771;SDS011;59606;52.138;5.424;2022-12-18T15:58:07;24.23;;;9.00;;
71771;SDS011;59606;52.138;5.424;2022-12-18T16:00:43;22.25;;;9.35;;
71771;SDS011;59606;52.138;5.424;2022-12-18T16:03:16;21.37;;;10.07;;
71771;SDS011;59606;52.138;5.424;2022-12-18T16:05:52;22.60;;;9.45;;
71771;SDS011;59606;52.138;5.424;2022-12-18T16:09:20;21.40;;;8.75;;
71771;SDS011;59606;52.138;5.424;2022-12-18T16:11:51;18.38;;;8.18;;
71771;SDS011;59606;52.138;5.424;2022-12-18T16:14:25;19.13;;;8.90;;
71771;SDS011;59606;52.138;5.424;2022-12-18T16:17:33;23.07;;;9.13;;
71771;SDS011;59606;52.138;5.424;2022-12-18T16:23:24;21.38;;;9.82;;
71771;SDS011;59606;52.138;5.424;2022-12-18T16:30:31;22.60;;;9.40;;
71771;SDS011;59606;52.138;5.424;2022-12-18T16:33:43;18.80;;;9.33;;
71771;SDS011;59606;52.138;5.424;2022-12-18T16:36:32;20.83;;;8.98;;
71771;SDS011;59606;52.138;5.424;2022-12-18T16:38:59;21.58;;;8.73;;
71771;SDS011;59606;52.138;5.424;2022-12-18T16:41:32;19.02;;;8.65;;
71771;SDS011;59606;52.138;5.424;2022-12-18T16:44:02;22.23;;;8.70;;
71771;SDS011;59606;52.138;5.424;2022-12-18T16:46:36;17.20;;;7.77;;
71771;SDS011;59606;52.138;5.424;2022-12-18T16:49:07;22.67;;;8.48;;
71771;SDS011;59606;52.138;5.424;2022-12-18T16:51:36;24.63;;;9.68;;
71771;SDS011;59606;52.138;5.424;2022-12-18T16:54:13;21.67;;;9.95;;
71771;SDS011;59606;52.138;5.424;2022-12-18T16:56:45;20.73;;;9.48;;
71771;SDS011;59606;52.138;5.424;2022-12-18T16:59:16;22.27;;;9.37;;
71771;SDS011;59606;52.138;5.424;2022-12-18T17:01:52;19.73;;;8.88;;
71771;SDS011;59606;52.138;5.424;2022-12-18T17:04:30;25.50;;;9.80;;
71771;SDS011;59606;52.138;5.424;2022-12-18T17:07:00;19.10;;;9.30;;
71771;SDS011;59606;52.138;5.424;2022-12-18T17:09:29;21.77;;;10.50;;
71771;SDS011;59606;52.138;5.424;2022-12-18T17:11:56;26.53;;;9.93;;
71771;SDS011;59606;52.138;5.424;2022-12-18T17:14:23;21.27;;;8.82;;
71771;SDS011;59606;52.138;5.424;2022-12-18T17:16:53;24.10;;;10.25;;
71771;SDS011;59606;52.138;5.424;2022-12-18T17:19:42;26.50;;;9.88;;
71771;SDS011;59606;52.138;5.424;2022-12-18T17:22:11;24.15;;;9.65;;
71771;SDS011;59606;52.138;5.424;2022-12-18T17:24:38;23.53;;;9.97;;
71771;SDS011;59606;52.138;5.424;2022-12-18T17:27:04;21.35;;;10.07;;
71771;SDS011;59606;52.138;5.424;2022-12-18T17:29:34;23.80;;;10.48;;